createdAt,value
2023-02-14T00:02:33.158Z,199.30
2023-02-14T00:05:18.464Z,376.85
2023-02-14T00:08:03.713Z,290.98
2023-02-14T00:10:48.935Z,383.42
2023-02-14T00:13:34.330Z,343.90
2023-02-14T00:16:19.597Z,253.95
2023-02-14T00:19:04.847Z,332.17
2023-02-14T00:21:50.280Z,355.55
2023-02-14T00:24:35.605Z,403.13
2023-02-14T00:27:20.906Z,243.65
2023-02-14T00:30:08.480Z,237.55
2023-02-14T00:32:53.643Z,246.52
2023-02-14T00:35:38.715Z,219.88
2023-02-14T00:38:23.569Z,256.92
2023-02-14T00:41:08.589Z,193.43
2023-02-14T00:43:55.156Z,264.92
2023-02-14T00:46:40.862Z,335.30
2023-02-14T00:49:26.173Z,216.48
2023-02-14T00:52:11.411Z,257.90
2023-02-14T00:54:56.895Z,149.20
2023-02-14T00:57:41.954Z,239.20
2023-02-14T01:00:26.916Z,266.35
2023-02-14T01:03:11.793Z,304.88
2023-02-14T01:05:56.730Z,342.90
2023-02-14T01:08:41.702Z,324.70
2023-02-14T01:11:29.268Z,271.13
2023-02-14T01:14:15.737Z,265.48
2023-02-14T01:17:00.618Z,260.50
2023-02-14T01:19:45.737Z,271.85
2023-02-14T01:22:35.776Z,284.55
2023-02-14T01:25:20.693Z,277.35
2023-02-14T01:28:06.814Z,211.30
2023-02-14T01:30:51.900Z,224.32
2023-02-14T01:33:37.703Z,219.00
2023-02-14T01:36:24.380Z,195.80
2023-02-14T01:39:13.694Z,215.68
2023-02-14T01:41:58.595Z,212.85
2023-02-14T01:44:49.861Z,208.15
2023-02-14T01:47:39.616Z,179.55
2023-02-14T01:50:28.325Z,191.65
2023-02-14T01:53:19.777Z,179.30
2023-02-14T01:56:09.927Z,181.23
2023-02-14T01:59:00.129Z,229.45
2023-02-14T02:01:47.506Z,224.50
2023-02-14T02:04:39.574Z,150.50
2023-02-14T02:07:27.335Z,175.95
2023-02-14T02:10:12.608Z,183.48
2023-02-14T02:13:03.514Z,193.15
2023-02-14T02:16:15.528Z,151.80
2023-02-14T02:19:03.731Z,126.95
2023-02-14T02:22:24.991Z,142.70
2023-02-14T02:25:47.819Z,203.15
2023-02-14T02:28:51.509Z,142.13
2023-02-14T02:31:46.017Z,129.57
2023-02-14T02:34:53.117Z,84.93
2023-02-14T02:38:06.203Z,109.03
2023-02-14T02:41:04.195Z,147.50
2023-02-14T02:44:03.785Z,150.70
2023-02-14T02:47:10.194Z,119.22
2023-02-14T02:50:31.567Z,95.30
2023-02-14T02:53:41.666Z,178.40
2023-02-14T02:59:34.709Z,122.68
2023-02-14T03:02:31.317Z,234.05
2023-02-14T03:05:16.659Z,226.02
2023-02-14T03:08:03.633Z,156.68
2023-02-14T03:10:48.922Z,176.63
2023-02-14T03:13:37.280Z,136.25
2023-02-14T03:16:51.144Z,213.85
2023-02-14T03:20:11.210Z,115.88
2023-02-14T03:23:08.581Z,220.20
2023-02-14T03:26:04.879Z,146.77
2023-02-14T03:29:09.701Z,131.65
2023-02-14T03:32:11.187Z,171.05
2023-02-14T03:35:25.742Z,81.25
2023-02-14T03:38:22.043Z,226.68
2023-02-14T03:41:21.367Z,71.30
2023-02-14T03:44:11.389Z,131.32
2023-02-14T03:47:01.352Z,147.90
2023-02-14T03:50:02.194Z,223.55
2023-02-14T03:52:51.199Z,123.22
2023-02-14T03:55:44.180Z,119.50
2023-02-14T03:58:37.382Z,141.93
2023-02-14T04:01:50.720Z,132.20
2023-02-14T04:04:46.214Z,131.98
2023-02-14T04:07:31.194Z,180.05
2023-02-14T04:10:17.413Z,198.02
2023-02-14T04:13:02.795Z,94.75
2023-02-14T04:15:48.203Z,209.98
2023-02-14T04:18:52.254Z,123.07
2023-02-14T04:21:37.370Z,153.23
2023-02-14T04:24:22.375Z,239.90
2023-02-14T04:27:10.589Z,138.85
2023-02-14T04:29:56.111Z,191.35
2023-02-14T04:32:41.678Z,156.63
2023-02-14T04:35:26.913Z,107.75
2023-02-14T04:38:11.872Z,149.70
2023-02-14T04:40:57.161Z,109.20
2023-02-14T04:43:42.376Z,108.65
2023-02-14T04:46:27.665Z,172.93
2023-02-14T04:49:12.420Z,72.40
2023-02-14T04:51:58.194Z,136.38
2023-02-14T04:54:43.563Z,96.97
2023-02-14T04:57:28.679Z,138.07
2023-02-14T05:00:14.862Z,152.65
2023-02-14T05:03:00.175Z,177.00
2023-02-14T05:05:46.152Z,171.82
2023-02-14T05:08:31.401Z,174.50
2023-02-14T05:11:16.558Z,45.97
2023-02-14T05:14:01.815Z,216.95
2023-02-14T05:16:47.063Z,74.63
2023-02-14T05:19:32.365Z,163.68
2023-02-14T05:22:18.551Z,189.88
2023-02-14T05:25:03.827Z,131.15
2023-02-14T05:27:49.768Z,154.40
2023-02-14T05:30:35.278Z,170.55
2023-02-14T05:33:20.404Z,233.20
2023-02-14T05:36:06.675Z,212.55
2023-02-14T05:38:52.182Z,237.82
2023-02-14T05:44:23.017Z,259.10
2023-02-14T05:47:08.242Z,170.25
2023-02-14T05:49:53.078Z,226.18
2023-02-14T05:52:38.319Z,241.15
2023-02-14T05:55:24.641Z,107.93
2023-02-14T05:58:09.625Z,165.70
2023-02-14T06:00:57.347Z,257.73
2023-02-14T06:03:42.780Z,294.27
2023-02-14T06:06:27.874Z,92.10
2023-02-14T06:09:13.498Z,234.07
2023-02-14T06:11:58.973Z,331.38
2023-02-14T06:14:45.063Z,143.77
2023-02-14T06:17:30.185Z,289.02
2023-02-14T06:20:15.040Z,213.25
2023-02-14T06:22:59.990Z,279.25
2023-02-14T06:25:44.919Z,201.27
2023-02-14T06:28:29.980Z,195.35
2023-02-14T06:31:17.443Z,138.40
2023-02-14T06:34:02.514Z,173.40
2023-02-14T06:36:47.880Z,131.20
2023-02-14T06:39:33.256Z,147.48
2023-02-14T06:42:18.481Z,182.30
2023-02-14T06:45:04.776Z,261.67
2023-02-14T06:47:50.148Z,226.90
2023-02-14T06:50:35.704Z,169.07
2023-02-14T06:53:21.139Z,211.80
2023-02-14T06:56:06.680Z,89.63
2023-02-14T06:58:51.809Z,186.02
2023-02-14T07:01:37.082Z,241.20
2023-02-14T07:04:22.108Z,261.52
2023-02-14T07:07:07.007Z,268.83
2023-02-14T07:09:52.349Z,157.98
2023-02-14T07:12:39.507Z,198.15
2023-02-14T07:15:24.880Z,288.23
2023-02-14T07:18:11.532Z,73.50
2023-02-14T07:20:56.567Z,180.25
2023-02-14T07:23:41.978Z,280.67
2023-02-14T07:26:27.051Z,282.67
2023-02-14T07:29:12.071Z,161.10
2023-02-14T07:31:57.338Z,230.68
2023-02-14T07:34:42.491Z,98.03
2023-02-14T07:37:27.746Z,262.38
2023-02-14T07:40:15.134Z,290.05
2023-02-14T07:43:00.998Z,236.75
2023-02-14T07:45:46.580Z,185.75
2023-02-14T07:48:33.983Z,189.25
2023-02-14T07:51:19.811Z,96.13
2023-02-14T07:54:04.987Z,190.95
2023-02-14T07:56:51.121Z,189.48
2023-02-14T07:59:36.455Z,86.57
2023-02-14T08:02:21.368Z,137.52
2023-02-14T08:05:07.145Z,125.55
2023-02-14T08:07:55.026Z,193.80
2023-02-14T08:10:40.194Z,169.95
2023-02-14T08:13:25.414Z,99.30
2023-02-14T08:16:12.598Z,146.25
2023-02-14T08:18:57.920Z,151.05
2023-02-14T08:21:43.162Z,169.73
2023-02-14T08:24:28.277Z,114.20
2023-02-14T08:27:13.583Z,107.55
2023-02-14T08:29:58.597Z,179.52
2023-02-14T08:32:43.840Z,141.30
2023-02-14T08:35:29.023Z,143.48
2023-02-14T08:38:14.051Z,189.25
2023-02-14T08:41:01.665Z,261.13
2023-02-14T08:43:48.456Z,386.05
2023-02-14T08:46:33.612Z,303.75
2023-02-14T08:49:18.695Z,299.85
2023-02-14T08:52:03.995Z,191.23
2023-02-14T08:54:49.230Z,296.17
2023-02-14T08:57:34.101Z,243.30
2023-02-14T09:00:19.619Z,281.42
2023-02-14T09:03:04.763Z,144.70
2023-02-14T09:05:50.670Z,200.18
2023-02-14T09:08:38.853Z,161.40
2023-02-14T09:11:25.208Z,169.88
2023-02-14T09:14:10.209Z,229.07
2023-02-14T09:16:55.175Z,162.75
2023-02-14T09:19:40.469Z,158.38
2023-02-14T09:22:25.851Z,343.00
2023-02-14T09:25:11.186Z,25.92
2023-02-14T09:27:57.207Z,199.85
2023-02-14T09:30:42.128Z,95.90
2023-02-14T09:33:29.157Z,239.02
2023-02-14T09:36:20.667Z,339.50
2023-02-14T09:39:05.834Z,231.18
2023-02-14T09:41:51.221Z,201.27
2023-02-14T09:44:42.281Z,103.88
2023-02-14T09:47:46.461Z,118.63
2023-02-14T09:50:45.855Z,159.63
2023-02-14T09:53:40.677Z,162.82
2023-02-14T09:56:50.544Z,124.90
2023-02-14T09:59:43.939Z,238.70
2023-02-14T10:03:01.344Z,116.68
2023-02-14T10:06:15.347Z,45.47
2023-02-14T10:09:03.463Z,77.80
2023-02-14T10:11:49.189Z,45.03
2023-02-14T10:14:40.753Z,153.30
2023-02-14T10:17:40.604Z,115.25
2023-02-14T10:20:31.383Z,72.55
2023-02-14T10:23:42.524Z,131.05
2023-02-14T10:26:35.030Z,120.18
2023-02-14T10:29:20.998Z,181.35
2023-02-14T10:32:14.266Z,138.77
2023-02-14T10:35:07.910Z,143.00
2023-02-14T10:38:02.205Z,149.60
2023-02-14T10:41:20.877Z,103.22
2023-02-14T10:44:38.861Z,70.53
2023-02-14T10:47:36.571Z,45.63
2023-02-14T10:50:49.468Z,117.57
2023-02-14T10:53:40.468Z,125.93
2023-02-14T10:56:34.522Z,58.97
2023-02-14T10:59:27.236Z,114.55
2023-02-14T11:02:16.132Z,120.95
2023-02-14T11:05:03.544Z,89.40
2023-02-14T11:07:48.996Z,115.25
2023-02-14T11:10:35.642Z,206.02
2023-02-14T11:13:50.336Z,46.50
2023-02-14T11:16:37.284Z,174.93
2023-02-14T11:19:35.513Z,263.95
2023-02-14T11:22:34.265Z,102.57
2023-02-14T11:25:28.590Z,125.25
2023-02-14T11:28:18.359Z,48.70
2023-02-14T11:31:04.351Z,92.38
2023-02-14T11:33:51.312Z,109.40
2023-02-14T11:36:42.096Z,60.75
2023-02-14T11:39:31.678Z,59.70
2023-02-14T11:42:45.531Z,77.78
2023-02-14T11:45:36.424Z,96.05
2023-02-14T11:48:36.769Z,52.90
2023-02-14T11:51:33.499Z,90.93
2023-02-14T11:54:35.787Z,50.75
2023-02-14T11:57:32.457Z,107.15
2023-02-14T12:00:20.040Z,43.70
2023-02-14T12:03:06.422Z,71.15
2023-02-14T12:05:53.942Z,41.35
2023-02-14T12:08:41.921Z,48.97
2023-02-14T12:11:28.992Z,67.95
2023-02-14T12:14:22.225Z,50.85
2023-02-14T12:17:31.569Z,53.53
2023-02-14T12:20:34.830Z,59.65
2023-02-14T12:23:39.009Z,62.47
2023-02-14T12:26:47.756Z,54.90
2023-02-14T12:29:44.070Z,60.03
2023-02-14T12:32:31.434Z,77.15
2023-02-14T12:35:35.068Z,53.28
2023-02-14T12:38:32.262Z,55.50
2023-02-14T12:41:49.109Z,54.25
2023-02-14T12:44:49.211Z,64.32
2023-02-14T12:47:34.099Z,53.03
2023-02-14T12:50:28.674Z,67.15
2023-02-14T12:53:29.078Z,66.35
2023-02-14T12:56:36.560Z,71.78
2023-02-14T12:59:35.048Z,125.20
2023-02-14T13:02:42.931Z,75.50
2023-02-14T13:06:09.624Z,60.33
2023-02-14T13:09:37.881Z,79.22
2023-02-14T13:12:34.336Z,97.07
2023-02-14T13:15:31.087Z,85.55
2023-02-14T13:18:25.356Z,83.53
2023-02-14T13:21:14.069Z,82.40
2023-02-14T13:24:15.009Z,87.10
2023-02-14T13:27:04.876Z,90.05
2023-02-14T13:30:01.098Z,85.38
2023-02-14T13:32:48.362Z,88.90
2023-02-14T13:35:34.780Z,76.40
2023-02-14T13:38:21.072Z,75.50
2023-02-14T13:41:09.405Z,160.88
2023-02-14T13:43:56.489Z,70.15
2023-02-14T13:46:49.184Z,121.57
2023-02-14T13:49:48.441Z,73.38
2023-02-14T13:52:48.679Z,71.82
2023-02-14T13:55:36.523Z,60.25
2023-02-14T13:58:24.179Z,103.88
2023-02-14T14:01:30.252Z,79.43
2023-02-14T14:04:36.302Z,64.22
2023-02-14T14:07:26.953Z,70.63
2023-02-14T14:10:12.398Z,69.35
2023-02-14T14:12:57.932Z,95.20
2023-02-14T14:16:22.061Z,70.60
2023-02-14T14:19:10.246Z,94.00
2023-02-14T14:22:04.342Z,69.15
2023-02-14T14:24:59.415Z,66.78
2023-02-14T14:27:46.127Z,68.50
2023-02-14T14:30:35.221Z,69.95
2023-02-14T14:33:32.900Z,86.55
2023-02-14T14:36:24.367Z,81.32
2023-02-14T14:39:10.598Z,63.08
2023-02-14T14:42:06.681Z,66.65
2023-02-14T14:44:59.337Z,87.30
2023-02-14T14:47:46.045Z,67.68
2023-02-14T14:50:33.819Z,64.93
2023-02-14T14:53:26.872Z,105.95
2023-02-14T14:56:14.101Z,66.07
2023-02-14T14:59:20.290Z,76.68
2023-02-14T15:02:26.429Z,87.25
2023-02-14T15:05:25.994Z,78.72
2023-02-14T15:11:10.753Z,59.15
2023-02-14T15:13:57.669Z,80.05
2023-02-14T15:16:50.702Z,87.55
2023-02-14T15:19:44.350Z,74.68
2023-02-14T15:22:44.676Z,78.32
2023-02-14T15:25:36.311Z,124.63
2023-02-14T15:28:28.854Z,116.90
2023-02-14T15:31:13.998Z,134.13
2023-02-14T15:34:01.392Z,96.85
2023-02-14T15:36:52.119Z,94.07
2023-02-14T15:39:41.787Z,154.73
2023-02-14T15:42:32.957Z,131.88
2023-02-14T15:45:27.637Z,141.38
2023-02-14T15:48:17.156Z,156.35
2023-02-14T15:51:04.951Z,151.30
2023-02-14T15:53:58.202Z,118.32
2023-02-14T15:56:48.841Z,152.07
2023-02-14T15:59:36.652Z,136.65
2023-02-14T16:02:38.871Z,127.15
2023-02-14T16:05:26.883Z,221.57
2023-02-14T16:08:31.875Z,167.65
2023-02-14T16:11:37.410Z,288.55
2023-02-14T16:14:37.180Z,115.75
2023-02-14T16:17:35.480Z,162.30
2023-02-14T16:20:22.739Z,223.13
2023-02-14T16:23:28.478Z,139.48
2023-02-14T16:26:14.647Z,209.82
2023-02-14T16:29:03.648Z,228.32
2023-02-14T16:32:12.063Z,305.35
2023-02-14T16:34:55.250Z,145.52
2023-02-14T16:37:40.592Z,272.33
2023-02-14T16:40:27.930Z,136.07
2023-02-14T16:43:15.501Z,140.55
2023-02-14T16:46:00.474Z,177.00
2023-02-14T16:48:46.394Z,131.23
2023-02-14T16:51:33.644Z,299.30
2023-02-14T16:54:20.407Z,404.60
2023-02-14T16:57:06.376Z,229.38
2023-02-14T16:59:51.410Z,240.35
2023-02-14T17:02:36.943Z,387.02
2023-02-14T17:05:24.392Z,358.58
2023-02-14T17:08:12.654Z,292.25
2023-02-14T17:10:58.519Z,418.70
2023-02-14T17:13:45.500Z,328.40
2023-02-14T17:16:31.731Z,594.08
2023-02-14T17:19:17.759Z,239.63
2023-02-14T17:22:04.537Z,258.40
2023-02-14T17:24:49.387Z,220.93
2023-02-14T17:27:35.318Z,218.40
2023-02-14T17:30:20.529Z,178.23
2023-02-14T17:33:05.826Z,289.00
2023-02-14T17:35:51.034Z,232.07
2023-02-14T17:38:36.111Z,197.32
2023-02-14T17:41:24.973Z,217.05
2023-02-14T17:44:10.137Z,240.43
2023-02-14T17:46:55.512Z,267.10
2023-02-14T17:49:40.536Z,111.03
2023-02-14T17:52:26.703Z,171.00
2023-02-14T17:55:12.322Z,162.65
2023-02-14T17:57:57.545Z,124.65
2023-02-14T18:00:43.184Z,155.20
2023-02-14T18:03:28.293Z,156.27
2023-02-14T18:06:14.320Z,202.57
2023-02-14T18:08:59.670Z,116.97
2023-02-14T18:11:45.848Z,154.43
2023-02-14T18:14:31.458Z,187.90
2023-02-14T18:17:16.427Z,94.32
2023-02-14T18:20:01.762Z,96.22
2023-02-14T18:22:46.979Z,124.00
2023-02-14T18:25:32.186Z,179.45
2023-02-14T18:28:17.841Z,171.68
2023-02-14T18:31:09.826Z,263.23
2023-02-14T18:33:56.709Z,215.20
2023-02-14T18:36:42.224Z,196.73
2023-02-14T18:39:27.327Z,142.40
2023-02-14T18:42:12.418Z,156.20
2023-02-14T18:44:57.699Z,78.68
2023-02-14T18:47:42.733Z,142.95
2023-02-14T18:50:28.154Z,179.45
2023-02-14T18:53:13.373Z,215.82
2023-02-14T18:55:58.505Z,220.65
2023-02-14T18:58:50.566Z,283.08
2023-02-14T19:01:39.485Z,315.65
2023-02-14T19:04:24.812Z,288.93
2023-02-14T19:07:09.987Z,294.70
2023-02-14T19:09:55.128Z,182.27
2023-02-14T19:12:40.370Z,327.73
2023-02-14T19:15:25.615Z,279.52
2023-02-14T19:18:10.521Z,225.13
2023-02-14T19:20:55.772Z,188.80
2023-02-14T19:23:41.163Z,205.30
2023-02-14T19:26:32.837Z,196.77
2023-02-14T19:29:20.118Z,140.70
2023-02-14T19:32:05.875Z,143.88
2023-02-14T19:34:51.891Z,110.90
2023-02-14T19:37:36.837Z,133.77
2023-02-14T19:40:22.154Z,106.55
2023-02-14T19:43:07.044Z,89.28
2023-02-14T19:45:52.388Z,105.32
2023-02-14T19:48:37.465Z,112.50
2023-02-14T19:51:28.799Z,105.63
2023-02-14T19:54:14.021Z,114.82
2023-02-14T19:56:59.305Z,83.88
2023-02-14T19:59:44.667Z,59.67
2023-02-14T20:02:30.002Z,46.40
2023-02-14T20:05:16.490Z,51.53
2023-02-14T20:08:01.506Z,97.20
2023-02-14T20:10:46.441Z,71.65
2023-02-14T20:13:31.773Z,75.75
2023-02-14T20:16:17.515Z,70.57
2023-02-14T20:19:05.513Z,81.40
2023-02-14T20:21:50.966Z,83.07
2023-02-14T20:24:35.904Z,114.75
2023-02-14T20:27:21.266Z,159.52
2023-02-14T20:30:07.564Z,201.85
2023-02-14T20:32:52.546Z,207.80
2023-02-14T20:35:40.994Z,194.68
2023-02-14T20:38:26.265Z,240.68
2023-02-14T20:41:13.341Z,261.02
2023-02-14T20:44:07.404Z,246.40
2023-02-14T20:46:54.800Z,266.00
2023-02-14T20:49:44.533Z,200.75
2023-02-14T20:52:29.544Z,195.23
2023-02-14T20:55:14.769Z,169.85
2023-02-14T20:58:02.393Z,172.23
2023-02-14T21:00:48.880Z,152.45
2023-02-14T21:03:35.812Z,164.65
2023-02-14T21:06:27.023Z,154.45
2023-02-14T21:09:12.220Z,101.45
2023-02-14T21:11:58.401Z,118.00
2023-02-14T21:14:43.568Z,154.13
2023-02-14T21:17:28.604Z,109.80
2023-02-14T21:20:13.809Z,158.05
2023-02-14T21:22:59.049Z,73.05
2023-02-14T21:25:44.052Z,108.85
2023-02-14T21:28:29.506Z,56.95
2023-02-14T21:31:17.312Z,62.08
2023-02-14T21:34:03.247Z,65.88
2023-02-14T21:36:48.526Z,50.97
2023-02-14T21:39:35.764Z,82.82
2023-02-14T21:42:21.173Z,63.38
2023-02-14T21:45:24.827Z,42.58
2023-02-14T21:48:28.489Z,37.88
2023-02-14T21:51:15.361Z,46.65
2023-02-14T21:54:00.659Z,40.30
2023-02-14T21:56:45.555Z,43.38
2023-02-14T21:59:30.652Z,41.53
2023-02-14T22:02:15.828Z,44.38
2023-02-14T22:05:00.722Z,54.58
2023-02-14T22:07:45.696Z,56.10
2023-02-14T22:10:30.775Z,55.78
2023-02-14T22:13:15.795Z,103.50
2023-02-14T22:16:15.258Z,86.28
2023-02-14T22:19:00.225Z,76.07
2023-02-14T22:21:45.194Z,60.33
2023-02-14T22:24:30.434Z,166.50
2023-02-14T22:27:18.525Z,227.77
2023-02-14T22:30:03.669Z,94.68
2023-02-14T22:32:49.221Z,117.75
2023-02-14T22:35:34.505Z,172.90
2023-02-14T22:38:19.523Z,274.60
2023-02-14T22:41:10.050Z,188.32
2023-02-14T22:43:55.328Z,185.88
2023-02-14T22:46:40.230Z,265.00
2023-02-14T22:49:25.469Z,251.75
2023-02-14T22:52:10.653Z,237.82
2023-02-14T22:54:55.620Z,226.27
2023-02-14T22:57:40.807Z,207.25
2023-02-14T23:00:25.982Z,187.23
2023-02-14T23:03:11.127Z,133.80
2023-02-14T23:05:57.152Z,241.27
2023-02-14T23:08:44.966Z,144.80
2023-02-14T23:11:34.388Z,290.95
2023-02-14T23:14:38.906Z,331.23
2023-02-14T23:17:43.083Z,311.23
2023-02-14T23:21:08.167Z,293.85
2023-02-14T23:23:53.258Z,315.95
2023-02-14T23:26:38.313Z,247.73
2023-02-14T23:29:23.346Z,297.20
2023-02-14T23:32:08.984Z,248.35
2023-02-14T23:34:54.656Z,373.83
2023-02-14T23:37:39.855Z,392.30
2023-02-14T23:40:24.821Z,314.60
2023-02-14T23:43:10.038Z,434.35
2023-02-14T23:45:55.398Z,317.80
2023-02-14T23:48:40.464Z,341.67
2023-02-14T23:51:25.692Z,374.95
2023-02-14T23:54:11.120Z,365.75
2023-02-14T23:56:57.629Z,392.10
2023-02-14T23:59:42.538Z,311.80
